ROMMA est une association bénévole à but non lucratif. Votre soutien est indispensable : ADHERER à ROMMA ou FAIRE un DON

Crest - (26, Drôme)

Vallée de la Drôme (315 m)   Longitude: 5°2' E   Latitude: 44°44' N Station partenaire n°62
 

Détail journalier du     <<     >>

Température Precipitation Humidité Pression Vent Dir Rafale Dir. rafale Ensol.
Heure (°C) (mm) (%) (hPa) (km/h) (km/h) (min)
01:00 7.408310304S16SSE0
02:00 7.108410308NNE29N0
03:00 7.108410307NE24ENE0
04:00 6.908510305SE24NNE0
05:00 6.908310309NNE27NNE0
06:00 6.7082103013SO31SO0
07:00 6.6082103020SO37SO0
08:00 6.6081103119NNE34NNE0
09:00 6.8082103220SO37SSO15
10:00 7.3079103223SO45NNO60
11:00 7.7078103323SO45NNO55
12:00 7.9075103324SO45SO60
13:00 8.1075103221SO42SO60
14:00 8.2073103123SSO39NNO54
15:00 8.3068103123SO37SO60
16:00 7.6074103224SO44SO59
17:00 6.2081103224SO45SSO36
18:00 5.6082103225SO45SO0
19:00 5.3083103223SO39N0
20:00 4.9083103222SO39NNO0
21:00 4.9081103221SO37SSO0
22:00 4.6082103319SO34N0
23:00 4.5082103316SO27SO0
minuit 4.4083103411SO23SO0

Graphique du 28-12-2019

 

Serveur OMMA